Time;durP1;ratioP1;P1;durP2;ratioP2;P2;SDS_P1;SDS_P2;PMS_P1;PMS_P2;Temp;Humidity;BMP_temperature;BMP_pressure;BME280_temperature;BME280_humidity;BME280_pressure;Samples;Min_cycle;Max_cycle;Signal;HPM_P1;HPM_P2
2022/11/16 00:01:14;;;;;;;45.55;34.05;;;12.70;98.60;;;;;;5074807;28;20497;-71
2022/11/16 00:03:40;;;;;;;40.42;32.03;;;12.70;98.60;;;;;;5074753;28;20122;-68
2022/11/16 00:06:07;;;;;;;43.33;32.67;;;12.70;98.60;;;;;;5074792;28;20052;-68
2022/11/16 00:08:42;;;;;;;44.30;32.67;;;12.70;98.60;;;;;;5074627;28;20115;-67
2022/11/16 00:11:13;;;;;;;40.72;31.27;;;12.70;98.60;;;;;;5074375;28;20033;-68
2022/11/16 00:13:40;;;;;;;39.70;30.83;;;12.70;98.60;;;;;;5074750;28;20040;-68
2022/11/16 00:16:07;;;;;;;48.63;32.88;;;12.70;98.60;;;;;;5074631;28;20047;-68
2022/11/16 00:18:33;;;;;;;40.85;30.90;;;12.70;98.60;;;;;;5074711;28;20529;-68
2022/11/16 00:20:58;;;;;;;39.63;31.23;;;12.70;98.60;;;;;;5074287;28;20029;-68
2022/11/16 00:23:24;;;;;;;44.97;32.95;;;12.70;98.50;;;;;;5074311;28;20479;-68
2022/11/16 00:25:50;;;;;;;44.50;33.28;;;12.70;98.50;;;;;;5074074;28;20406;-68
2022/11/16 00:28:16;;;;;;;48.00;35.25;;;12.70;98.60;;;;;;5074428;28;20047;-68
2022/11/16 00:30:42;;;;;;;50.63;34.00;;;12.70;98.60;;;;;;5074429;28;20039;-68
2022/11/16 00:33:14;;;;;;;47.50;33.97;;;12.70;98.60;;;;;;5073834;28;20120;-68
2022/11/16 00:35:39;;;;;;;48.28;33.95;;;12.70;98.70;;;;;;5074231;28;20037;-68
2022/11/16 00:38:05;;;;;;;43.45;33.08;;;12.70;98.70;;;;;;5073988;28;20037;-68
2022/11/16 00:40:31;;;;;;;43.80;33.30;;;12.70;98.60;;;;;;5074204;28;20063;-68
2022/11/16 00:42:57;;;;;;;42.88;32.47;;;12.70;98.60;;;;;;5073672;28;20119;-68
2022/11/16 00:45:23;;;;;;;42.55;33.08;;;12.70;98.60;;;;;;5073851;28;20055;-68
2022/11/16 00:47:48;;;;;;;41.60;31.25;;;12.70;98.60;;;;;;5073739;28;20036;-68
2022/11/16 00:50:14;;;;;;;43.65;31.48;;;12.70;98.50;;;;;;5072727;28;20032;-68
2022/11/16 00:52:40;;;;;;;42.22;30.92;;;12.70;98.50;;;;;;5073621;28;20040;-68
2022/11/16 00:55:06;;;;;;;36.80;29.13;;;12.70;98.50;;;;;;5073565;28;20029;-68
2022/11/16 00:57:31;;;;;;;38.22;29.55;;;12.70;98.50;;;;;;5073712;28;20040;-68
2022/11/16 00:59:57;;;;;;;36.95;29.15;;;12.70;98.50;;;;;;5073497;28;20043;-68
2022/11/16 01:02:23;;;;;;;37.50;28.73;;;12.70;98.50;;;;;;5073518;28;20032;-68
2022/11/16 01:04:48;;;;;;;38.10;29.80;;;12.70;98.50;;;;;;5073409;28;20029;-68
2022/11/16 01:07:14;;;;;;;36.63;28.17;;;12.70;98.50;;;;;;5073846;28;20040;-68
2022/11/16 01:09:40;;;;;;;36.58;28.25;;;12.70;98.50;;;;;;5073487;28;20032;-68
2022/11/16 01:12:08;;;;;;;41.53;28.45;;;12.70;98.50;;;;;;5073147;28;20029;-68
2022/11/16 01:14:43;;;;;;;35.47;27.20;;;12.70;98.50;;;;;;5073431;28;20055;-68
2022/11/16 01:17:09;;;;;;;35.75;27.98;;;12.70;98.50;;;;;;5073925;28;20503;-68
2022/11/16 01:19:35;;;;;;;40.90;29.88;;;12.60;98.40;;;;;;5073478;28;20032;-68
2022/11/16 01:22:01;;;;;;;38.03;28.95;;;12.70;98.50;;;;;;5073449;28;20108;-68
2022/11/16 01:24:27;;;;;;;36.92;28.98;;;12.60;98.40;;;;;;5072998;28;20079;-68
2022/11/16 01:26:55;;;;;;;40.83;30.00;;;12.70;98.40;;;;;;5073293;28;20040;-69
2022/11/16 01:29:24;;;;;;;37.33;27.98;;;12.60;98.40;;;;;;5073144;28;20033;-68
2022/11/16 01:31:49;;;;;;;37.00;28.02;;;12.60;98.40;;;;;;5073013;28;20064;-68
2022/11/16 01:34:15;;;;;;;35.72;27.20;;;12.60;98.40;;;;;;5072763;28;20099;-68
2022/11/16 01:36:41;;;;;;;40.22;28.23;;;12.60;98.40;;;;;;5073059;28;20429;-68
2022/11/16 01:39:07;;;;;;;37.30;28.02;;;12.60;98.50;;;;;;5073128;28;20064;-68
2022/11/16 01:41:33;;;;;;;37.45;27.77;;;12.60;98.50;;;;;;5073032;28;20093;-68
2022/11/16 01:44:05;;;;;;;38.78;28.58;;;12.60;98.50;;;;;;5073213;28;20496;-69
2022/11/16 01:46:31;;;;;;;41.38;30.88;;;12.60;98.50;;;;;;5072777;28;20382;-68
2022/11/16 01:49:19;;;;;;;40.45;28.98;;;12.60;98.50;;;;;;5072886;28;20036;-68
2022/11/16 01:51:48;;;;;;;39.55;29.45;;;12.70;98.50;;;;;;5072516;28;20052;-68
2022/11/16 01:54:15;;;;;;;38.90;28.42;;;12.70;98.50;;;;;;5072695;28;20063;-68
2022/11/16 01:56:43;;;;;;;37.10;27.85;;;12.70;98.50;;;;;;5072818;28;20040;-68
2022/11/16 01:59:09;;;;;;;36.97;28.13;;;12.70;98.50;;;;;;5070338;28;20063;-68
2022/11/16 02:01:35;;;;;;;34.47;25.65;;;12.70;98.50;;;;;;5073242;28;20028;-68
2022/11/16 02:04:00;;;;;;;33.00;25.25;;;12.70;98.50;;;;;;5074714;28;20036;-68
2022/11/16 02:06:26;;;;;;;33.15;23.65;;;12.70;98.50;;;;;;5076572;28;20040;-68
2022/11/16 02:12:41;;;;;;;31.70;23.33;;;12.70;98.50;;;;;;5076870;28;20570;-68
2022/11/16 02:15:33;;;;;;;30.33;21.83;;;12.70;98.50;;;;;;5076535;28;20033;-68
2022/11/16 02:18:07;;;;;;;29.58;21.90;;;12.70;98.40;;;;;;5076483;28;20041;-68
2022/11/16 02:20:51;;;;;;;31.35;23.23;;;12.70;98.50;;;;;;5076405;28;20398;-85
2022/11/16 02:23:35;;;;;;;27.92;20.77;;;12.70;98.50;;;;;;5076488;28;20079;-68
2022/11/16 02:26:07;;;;;;;29.20;21.58;;;12.70;98.40;;;;;;5076497;28;20040;-68
2022/11/16 02:28:41;;;;;;;29.75;22.25;;;12.60;98.40;;;;;;5076182;28;20478;-68
2022/11/16 02:31:11;;;;;;;31.58;21.63;;;12.60;98.40;;;;;;5075200;28;20474;-69
2022/11/16 02:33:39;;;;;;;26.10;20.65;;;12.60;98.40;;;;;;5074760;28;20405;-68
2022/11/16 02:36:08;;;;;;;27.05;21.23;;;12.60;98.40;;;;;;5076119;28;20102;-68
2022/11/16 02:38:47;;;;;;;25.83;20.23;;;12.70;98.40;;;;;;5076160;28;20037;-68
2022/11/16 02:41:20;;;;;;;22.83;18.38;;;12.70;98.40;;;;;;5076191;28;20032;-68
2022/11/16 02:43:55;;;;;;;22.10;18.83;;;12.70;98.40;;;;;;5076063;28;20112;-68
2022/11/16 02:46:27;;;;;;;27.08;20.92;;;12.70;98.30;;;;;;5076087;28;20137;-68
2022/11/16 02:48:57;;;;;;;27.63;20.67;;;12.70;98.20;;;;;;5076120;28;20033;-68
2022/11/16 02:51:26;;;;;;;27.38;20.88;;;12.60;98.20;;;;;;5076040;28;20028;-67
2022/11/16 02:54:15;;;;;;;28.00;21.50;;;12.60;98.20;;;;;;5075768;28;20036;-68
2022/11/16 02:56:43;;;;;;;27.48;21.55;;;12.60;98.20;;;;;;5075968;28;20029;-68
2022/11/16 02:59:09;;;;;;;26.25;20.92;;;12.60;98.30;;;;;;5076010;28;20064;-68
2022/11/16 03:01:40;;;;;;;26.90;20.63;;;12.60;98.30;;;;;;5075891;28;20043;-68
2022/11/16 03:04:18;;;;;;;29.38;22.55;;;12.60;98.40;;;;;;5075892;28;20036;-68
2022/11/16 03:06:47;;;;;;;26.73;21.27;;;12.60;98.40;;;;;;5075993;28;20037;-68
2022/11/16 03:09:26;;;;;;;26.77;21.05;;;12.60;98.50;;;;;;5075563;28;20029;-68
2022/11/16 03:11:59;;;;;;;27.58;20.83;;;12.60;98.50;;;;;;5074624;28;20437;-68
2022/11/16 03:14:48;;;;;;;28.67;20.95;;;12.60;98.50;;;;;;5075508;28;20123;-68
2022/11/16 03:17:20;;;;;;;27.67;21.00;;;12.60;98.50;;;;;;5075765;28;20028;-68
2022/11/16 03:19:59;;;;;;;25.33;20.77;;;12.60;98.50;;;;;;5075375;28;20025;-68
2022/11/16 03:22:43;;;;;;;30.60;21.45;;;12.60;98.60;;;;;;5075802;28;20056;-68
2022/11/16 03:25:11;;;;;;;27.88;20.95;;;12.60;98.60;;;;;;5075246;28;20044;-68
2022/11/16 03:27:45;;;;;;;25.73;20.38;;;12.60;98.60;;;;;;5075764;28;20367;-68
2022/11/16 03:30:22;;;;;;;25.10;19.80;;;12.60;98.70;;;;;;5075307;28;20032;-68
2022/11/16 03:32:58;;;;;;;24.90;19.63;;;12.50;98.70;;;;;;5075090;28;20127;-68
2022/11/16 03:35:35;;;;;;;25.35;19.80;;;12.60;98.70;;;;;;5075424;28;20409;-70
2022/11/16 03:38:03;;;;;;;27.65;20.48;;;12.50;98.70;;;;;;5087538;28;20040;-68
2022/11/16 03:40:32;;;;;;;30.08;21.42;;;12.60;98.80;;;;;;5095333;28;20107;-68
2022/11/16 03:43:01;;;;;;;25.05;19.30;;;12.60;98.90;;;;;;5095237;28;20082;-68
2022/11/16 03:45:28;;;;;;;26.65;20.30;;;12.60;99.00;;;;;;5095388;28;20474;-68
2022/11/16 03:47:53;;;;;;;24.90;19.13;;;12.60;99.00;;;;;;5095308;28;20047;-68
2022/11/16 03:50:19;;;;;;;26.80;19.83;;;12.60;99.00;;;;;;5095008;28;20036;-68
2022/11/16 03:52:45;;;;;;;25.95;19.30;;;12.60;99.00;;;;;;5094914;28;20043;-69
2022/11/16 03:55:10;;;;;;;27.27;20.48;;;12.60;99.00;;;;;;5095299;28;20036;-68
2022/11/16 03:57:36;;;;;;;28.42;20.40;;;12.60;99.10;;;;;;5095014;28;20040;-68
2022/11/16 04:00:03;;;;;;;24.90;19.70;;;12.60;99.20;;;;;;5095117;28;20043;-68
2022/11/16 04:02:29;;;;;;;26.13;20.63;;;12.60;99.30;;;;;;5094977;28;20032;-68
2022/11/16 04:24:16;;;;;;;24.88;18.30;;;12.60;99.30;;;;;;5093977;28;20039;-68
2022/11/16 04:29:29;;;;;;;24.65;18.58;;;12.60;99.20;;;;;;5094745;28;20084;-68
2022/11/16 04:40:08;;;;;;;21.23;16.60;;;12.60;99.60;;;;;;5094675;28;20058;-68
2022/11/16 04:42:34;;;;;;;23.20;14.82;;;12.70;99.30;;;;;;5094287;28;20032;-83
2022/11/16 04:47:44;;;;;;;21.45;16.85;;;12.60;99.20;;;;;;5094307;28;20082;-68
2022/11/16 04:50:10;;;;;;;22.27;15.75;;;12.60;99.20;;;;;;5094187;28;20075;-68
2022/11/16 04:52:35;;;;;;;22.13;16.65;;;12.60;99.40;;;;;;5093845;28;20454;-84
2022/11/16 04:55:01;;;;;;;22.75;16.75;;;12.60;99.40;;;;;;5093925;28;20067;-68
2022/11/16 04:57:27;;;;;;;21.92;17.17;;;12.60;99.40;;;;;;5094030;28;20486;-68
2022/11/16 04:59:52;;;;;;;23.88;17.05;;;12.60;99.40;;;;;;5094268;28;20040;-81
2022/11/16 05:02:18;;;;;;;24.25;16.67;;;12.60;99.40;;;;;;5093640;28;20031;-68
2022/11/16 05:04:44;;;;;;;23.52;17.92;;;12.60;99.50;;;;;;5093973;28;20028;-68
2022/11/16 05:07:13;;;;;;;20.33;16.85;;;12.60;99.50;;;;;;5093779;28;20028;-68
2022/11/16 05:09:41;;;;;;;25.10;18.45;;;12.60;99.50;;;;;;5093820;28;20039;-68
2022/11/16 05:12:08;;;;;;;23.27;17.50;;;12.60;99.50;;;;;;5093459;28;20089;-68
2022/11/16 05:14:34;;;;;;;23.30;17.77;;;12.60;99.50;;;;;;5094063;28;20115;-70
2022/11/16 05:17:00;;;;;;;26.63;18.45;;;12.60;99.40;;;;;;5093771;28;20559;-81
2022/11/16 05:22:10;;;;;;;21.17;17.08;;;12.60;99.40;;;;;;5093810;28;20120;-68
2022/11/16 05:24:35;;;;;;;25.08;17.95;;;12.60;99.40;;;;;;5093408;28;20123;-68
2022/11/16 05:27:06;;;;;;;23.20;17.35;;;12.60;99.50;;;;;;5093685;28;20505;-77
2022/11/16 05:29:33;;;;;;;24.08;16.98;;;12.60;99.50;;;;;;5093576;28;20028;-69
2022/11/16 05:32:00;;;;;;;25.42;16.65;;;12.60;99.60;;;;;;5093565;28;20036;-68
2022/11/16 05:34:26;;;;;;;24.38;15.73;;;12.60;99.60;;;;;;5092619;28;20040;-67
2022/11/16 05:36:52;;;;;;;27.50;17.17;;;12.60;99.60;;;;;;5092973;28;20052;-68
2022/11/16 05:39:18;;;;;;;23.30;16.35;;;12.60;99.60;;;;;;5093390;28;20068;-68
2022/11/16 05:41:45;;;;;;;26.85;16.88;;;12.60;99.70;;;;;;5093287;28;20089;-69
2022/11/16 05:44:11;;;;;;;25.27;16.85;;;12.60;99.80;;;;;;5092848;28;20504;-68
2022/11/16 05:46:37;;;;;;;21.55;15.75;;;12.60;99.80;;;;;;5092971;28;20039;-68
2022/11/16 05:49:03;;;;;;;18.13;13.88;;;12.60;99.80;;;;;;5093263;28;20436;-68
2022/11/16 05:51:28;;;;;;;18.73;14.60;;;12.60;99.80;;;;;;5092785;28;20028;-68
2022/11/16 05:53:54;;;;;;;18.40;14.05;;;12.60;99.90;;;;;;5092939;28;20036;-68
2022/11/16 05:56:20;;;;;;;17.90;13.38;;;12.60;99.90;;;;;;5093078;28;20028;-68
2022/11/16 05:58:45;;;;;;;17.40;11.80;;;12.60;99.90;;;;;;5092609;28;20032;-85
2022/11/16 06:01:11;;;;;;;16.08;12.43;;;12.60;99.90;;;;;;5093149;28;20032;-69
2022/11/16 06:03:37;;;;;;;15.48;11.73;;;12.70;99.90;;;;;;5093287;28;20082;-68
2022/11/16 06:06:04;;;;;;;13.73;11.07;;;12.60;99.90;;;;;;5092985;28;20032;-69
2022/11/16 06:08:29;;;;;;;15.02;10.65;;;12.60;99.90;;;;;;5093046;28;20055;-68
2022/11/16 06:10:55;;;;;;;13.02;10.32;;;12.60;99.90;;;;;;5092840;28;20067;-68
2022/11/16 06:13:21;;;;;;;14.80;10.88;;;12.60;99.90;;;;;;5093111;28;20178;-68
2022/11/16 06:15:46;;;;;;;15.05;10.60;;;12.60;99.90;;;;;;5092616;28;20035;-68
2022/11/16 06:18:12;;;;;;;15.80;11.32;;;12.60;99.90;;;;;;5093054;28;20068;-68
2022/11/16 06:20:39;;;;;;;16.85;13.35;;;12.60;99.90;;;;;;5092766;28;20071;-70
2022/11/16 06:23:05;;;;;;;20.40;13.13;;;12.60;99.90;;;;;;5092869;28;20024;-68
2022/11/16 06:25:31;;;;;;;16.92;13.65;;;12.60;99.90;;;;;;5092737;28;20036;-82
2022/11/16 06:27:57;;;;;;;17.27;13.32;;;12.60;99.90;;;;;;5092523;28;20074;-68
2022/11/16 06:30:23;;;;;;;19.00;13.25;;;12.60;99.90;;;;;;5092615;28;20043;-68
2022/11/16 06:32:49;;;;;;;17.15;13.48;;;12.60;99.90;;;;;;5092355;28;20044;-68
2022/11/16 06:35:15;;;;;;;18.17;12.13;;;12.60;99.90;;;;;;5092466;28;20111;-68
2022/11/16 06:37:41;;;;;;;17.27;12.05;;;12.60;99.90;;;;;;5092276;28;20028;-69
2022/11/16 06:40:08;;;;;;;13.50;10.20;;;12.60;99.90;;;;;;5092625;28;20104;-69
2022/11/16 06:42:34;;;;;;;12.85;10.00;;;12.60;99.90;;;;;;5092687;28;20036;-69
2022/11/16 06:44:59;;;;;;;11.13;8.95;;;12.60;99.90;;;;;;5092490;28;20549;-68
2022/11/16 06:47:25;;;;;;;11.52;8.45;;;12.60;99.90;;;;;;5095277;28;20036;-83
2022/11/16 06:49:51;;;;;;;10.52;8.00;;;12.60;99.90;;;;;;5086818;28;20032;-82
2022/11/16 06:52:16;;;;;;;10.32;7.68;;;12.60;99.90;;;;;;5075200;28;20083;-68
2022/11/16 06:54:42;;;;;;;7.82;6.93;;;12.60;99.90;;;;;;5093600;28;20067;-79
2022/11/16 06:57:07;;;;;;;11.30;7.93;;;12.60;99.90;;;;;;5095897;28;20039;-68
2022/11/16 06:59:33;;;;;;;10.23;7.88;;;12.60;99.90;;;;;;5092234;28;20062;-71
2022/11/16 07:01:59;;;;;;;10.63;8.10;;;12.60;99.90;;;;;;5055145;28;20033;-73
2022/11/16 07:04:25;;;;;;;12.43;8.90;;;12.60;99.90;;;;;;5055509;28;20040;-68
2022/11/16 07:06:51;;;;;;;11.88;9.48;;;12.60;99.90;;;;;;5055285;28;20074;-67
2022/11/16 07:09:17;;;;;;;14.35;8.75;;;12.60;99.90;;;;;;5054046;28;20550;-69
2022/11/16 07:11:43;;;;;;;13.25;8.75;;;12.60;99.90;;;;;;5055371;28;20071;-68
2022/11/16 07:14:10;;;;;;;14.50;7.95;;;12.60;99.90;;;;;;5054997;28;20044;-67
2022/11/16 07:16:36;;;;;;;14.98;8.65;;;12.60;99.90;;;;;;5055508;28;20021;-81
2022/11/16 07:19:02;;;;;;;10.32;8.20;;;12.60;99.90;;;;;;5054868;28;20151;-71
2022/11/16 07:21:28;;;;;;;12.85;7.85;;;12.60;99.90;;;;;;5055186;28;20065;-73
2022/11/16 07:23:54;;;;;;;10.57;8.30;;;12.60;99.90;;;;;;5054950;28;20030;-68
2022/11/16 07:26:20;;;;;;;9.55;6.75;;;12.60;99.80;;;;;;5055228;28;20033;-69
2022/11/16 07:28:46;;;;;;;11.48;7.20;;;12.60;99.80;;;;;;5065079;28;20110;-69
2022/11/16 07:31:13;;;;;;;11.90;8.15;;;12.60;99.90;;;;;;5095123;28;20033;-84
2022/11/16 07:33:39;;;;;;;13.95;7.10;;;12.60;99.90;;;;;;5094781;28;20040;-74
2022/11/16 07:36:10;;;;;;;10.00;7.90;;;12.60;99.80;;;;;;5095418;28;20036;-68
2022/11/16 07:38:36;;;;;;;10.70;7.88;;;12.60;99.80;;;;;;5094889;28;20054;-68
2022/11/16 07:41:04;;;;;;;10.15;7.53;;;12.60;99.90;;;;;;5094338;28;20028;-72
2022/11/16 07:43:33;;;;;;;11.38;8.52;;;12.60;99.90;;;;;;5094471;28;20052;-68
2022/11/16 07:46:11;;;;;;;14.70;8.25;;;12.60;99.90;;;;;;5095003;28;20530;-68
2022/11/16 07:48:36;;;;;;;12.00;8.27;;;12.60;99.90;;;;;;5094937;28;20621;-67
2022/11/16 07:51:05;;;;;;;11.98;8.15;;;12.60;99.90;;;;;;5094608;28;20060;-85
2022/11/16 07:53:31;;;;;;;11.90;7.07;;;12.60;99.90;;;;;;5094049;28;20044;-68
2022/11/16 07:55:57;;;;;;;9.68;7.78;;;12.60;99.90;;;;;;5094499;28;20085;-80
2022/11/16 07:58:24;;;;;;;10.65;6.80;;;12.60;99.90;;;;;;5093921;28;20060;-68
2022/11/16 08:00:50;;;;;;;11.70;8.27;;;12.60;99.90;;;;;;5094294;28;20028;-68
2022/11/16 08:03:15;;;;;;;13.02;8.27;;;12.60;99.90;;;;;;5094009;28;20047;-68
2022/11/16 08:05:43;;;;;;;12.75;8.48;;;12.60;99.90;;;;;;5094267;28;20497;-71
2022/11/16 08:08:09;;;;;;;12.40;8.80;;;12.70;99.90;;;;;;5094195;28;20030;-72
2022/11/16 08:10:35;;;;;;;12.07;8.75;;;12.70;99.90;;;;;;5094152;28;20405;-67
2022/11/16 08:13:01;;;;;;;16.08;9.32;;;12.70;99.90;;;;;;5094220;28;20047;-67
2022/11/16 08:15:27;;;;;;;13.15;8.50;;;12.70;99.90;;;;;;5094100;28;20033;-67
2022/11/16 08:17:53;;;;;;;13.23;7.43;;;12.70;99.90;;;;;;5094270;28;20104;-67
2022/11/16 08:20:19;;;;;;;12.65;7.40;;;12.70;99.90;;;;;;5094015;28;20036;-68
2022/11/16 08:22:44;;;;;;;13.75;7.68;;;12.70;99.90;;;;;;5093811;28;20082;-84
2022/11/16 08:25:10;;;;;;;11.95;8.20;;;12.70;99.90;;;;;;5093532;28;20035;-69
2022/11/16 08:27:36;;;;;;;18.15;8.93;;;12.70;99.90;;;;;;5093677;28;20081;-68
2022/11/16 08:30:08;;;;;;;12.18;8.75;;;12.70;99.90;;;;;;5092910;28;20024;-67
2022/11/16 08:32:33;;;;;;;11.13;8.20;;;12.80;99.90;;;;;;5093342;28;20166;-72
2022/11/16 08:34:59;;;;;;;13.95;9.10;;;12.70;99.90;;;;;;5093685;28;20111;-68
2022/11/16 08:37:26;;;;;;;11.65;8.23;;;12.70;99.90;;;;;;5093969;28;20028;-68
2022/11/16 08:39:52;;;;;;;12.82;8.88;;;12.80;99.90;;;;;;5093451;28;20032;-68
2022/11/16 08:42:18;;;;;;;14.18;9.80;;;12.80;99.90;;;;;;5093771;28;20040;-69
2022/11/16 08:44:44;;;;;;;12.13;8.50;;;12.80;99.90;;;;;;5092333;28;20688;-68
2022/11/16 08:47:10;;;;;;;11.40;9.05;;;12.80;99.90;;;;;;5093329;28;20036;-68
2022/11/16 08:49:35;;;;;;;15.52;8.40;;;12.80;99.90;;;;;;5092880;28;20036;-68
2022/11/16 08:52:01;;;;;;;14.80;9.13;;;12.80;99.90;;;;;;5093063;28;20047;-68
2022/11/16 08:54:28;;;;;;;15.68;8.90;;;12.80;99.90;;;;;;5093285;28;20089;-68
2022/11/16 08:56:54;;;;;;;11.52;9.00;;;12.80;99.90;;;;;;5093691;28;20055;-69
2022/11/16 08:59:19;;;;;;;11.95;9.13;;;12.80;99.90;;;;;;5093535;28;20036;-68
2022/11/16 09:01:45;;;;;;;10.20;7.93;;;12.80;99.90;;;;;;5093965;28;20036;-68
2022/11/16 09:04:11;;;;;;;15.48;9.45;;;12.80;99.90;;;;;;5093573;28;20107;-68
2022/11/16 09:06:36;;;;;;;13.00;8.50;;;12.80;99.90;;;;;;5093091;28;20102;-68
2022/11/16 09:09:02;;;;;;;12.15;8.65;;;12.80;99.90;;;;;;5092038;28;20042;-67
2022/11/16 09:11:28;;;;;;;10.38;8.70;;;12.80;99.90;;;;;;5092548;28;20036;-69
2022/11/16 09:13:55;;;;;;;11.32;8.85;;;12.80;99.90;;;;;;5093420;28;20394;-68
2022/11/16 09:16:22;;;;;;;12.55;9.15;;;12.80;99.90;;;;;;5093627;28;20032;-68
2022/11/16 09:18:49;;;;;;;11.63;8.55;;;12.90;99.90;;;;;;5093164;28;20503;-68
2022/11/16 09:21:26;;;;;;;17.17;8.48;;;12.90;99.90;;;;;;5093299;28;20032;-68
2022/11/16 09:23:53;;;;;;;12.48;7.40;;;12.90;99.90;;;;;;5093401;28;20031;-68
2022/11/16 09:26:21;;;;;;;6.55;5.72;;;12.90;99.90;;;;;;5093268;28;20040;-68
2022/11/16 09:28:54;;;;;;;7.60;5.70;;;12.90;99.90;;;;;;5093576;28;20036;-68
2022/11/16 09:31:20;;;;;;;;;;;12.90;99.90;;;;;;5093685;28;20138;-68
2022/11/16 09:33:46;;;;;;;7.85;5.32;;;12.90;99.90;;;;;;5092828;28;20401;-68
2022/11/16 09:36:12;;;;;;;9.25;4.47;;;12.90;99.90;;;;;;5093257;28;20405;-68
2022/11/16 09:38:43;;;;;;;6.47;4.78;;;12.90;99.90;;;;;;5093317;28;20036;-68
2022/11/16 09:41:15;;;;;;;7.25;4.45;;;12.90;99.90;;;;;;5093116;28;20036;-68
2022/11/16 09:44:24;;;;;;;5.50;4.90;;;13.00;99.90;;;;;;5093155;28;20082;-68
2022/11/16 09:46:55;;;;;;;6.50;3.95;;;12.90;99.90;;;;;;5093046;28;20036;-68
2022/11/16 09:49:36;;;;;;;9.60;4.57;;;13.00;99.90;;;;;;5092980;28;20032;-68
2022/11/16 09:52:05;;;;;;;7.68;5.03;;;13.00;99.90;;;;;;5093039;28;20509;-68
2022/11/16 09:54:37;;;;;;;6.90;4.97;;;13.00;99.90;;;;;;5092703;28;20042;-68
2022/11/16 09:57:06;;;;;;;9.23;5.45;;;13.00;99.90;;;;;;5093020;28;20032;-68
2022/11/16 09:59:47;;;;;;;7.28;5.97;;;13.10;99.90;;;;;;5077693;28;20037;-68
2022/11/16 10:02:35;;;;;;;7.80;6.28;;;13.10;99.70;;;;;;5078674;28;20047;-84
2022/11/16 10:05:03;;;;;;;8.77;6.88;;;13.20;99.60;;;;;;5091893;28;20028;-68
2022/11/16 10:07:47;;;;;;;9.10;7.65;;;13.20;99.50;;;;;;5092389;28;20106;-83
2022/11/16 10:10:37;;;;;;;9.98;8.65;;;13.30;99.50;;;;;;5092563;28;20067;-68
2022/11/16 10:13:35;;;;;;;11.40;8.77;;;13.30;99.50;;;;;;5030058;28;20045;-71
2022/11/16 10:16:12;;;;;;;13.07;8.02;;;13.40;99.50;;;;;;5032189;28;20030;-69
2022/11/16 10:18:58;;;;;;;8.85;7.65;;;13.40;99.40;;;;;;5032050;28;20422;-69
2022/11/16 10:21:33;;;;;;;13.73;6.28;;;13.40;99.40;;;;;;5032648;28;20064;-68
2022/11/16 10:24:14;;;;;;;8.45;6.22;;;13.40;99.40;;;;;;5035790;28;20136;-78
2022/11/16 10:27:11;;;;;;;5.60;5.00;;;13.50;99.30;;;;;;5036026;28;20036;-68
2022/11/16 10:29:37;;;;;;;7.15;5.80;;;13.50;99.20;;;;;;4983385;28;20124;-68
2022/11/16 10:32:17;;;;;;;7.32;5.25;;;13.50;99.30;;;;;;5036355;28;20463;-68
2022/11/16 10:34:52;;;;;;;10.18;5.60;;;13.50;99.40;;;;;;5037237;28;20491;-80
2022/11/16 10:37:19;;;;;;;5.90;5.25;;;13.50;99.30;;;;;;5037351;28;20045;-68
2022/11/16 10:39:48;;;;;;;7.00;5.18;;;13.50;99.20;;;;;;5036392;28;20060;-83
2022/11/16 10:42:21;;;;;;;7.15;5.28;;;13.50;99.20;;;;;;5036294;28;20037;-69
2022/11/16 10:44:55;;;;;;;11.10;6.03;;;13.50;99.20;;;;;;5036073;28;20034;-68
2022/11/16 10:47:49;;;;;;;6.57;5.05;;;13.50;99.20;;;;;;5035682;28;20087;-68
2022/11/16 10:50:39;;;;;;;6.60;4.95;;;13.50;99.20;;;;;;5028118;28;20041;-68
2022/11/16 10:53:10;;;;;;;5.97;4.65;;;13.60;99.20;;;;;;5035811;28;20052;-69
2022/11/16 10:55:36;;;;;;;8.50;5.97;;;13.50;99.20;;;;;;5036000;28;20060;-84
2022/11/16 10:58:04;;;;;;;8.98;6.22;;;13.50;99.20;;;;;;5035253;28;20037;-69
2022/11/16 11:00:48;;;;;;;7.80;5.85;;;13.60;99.30;;;;;;5035696;28;20079;-68
2022/11/16 11:03:14;;;;;;;9.52;6.53;;;13.60;99.60;;;;;;5035767;28;20045;-68
2022/11/16 11:05:51;;;;;;;9.18;5.90;;;13.60;99.30;;;;;;5035800;28;20033;-68
2022/11/16 11:08:31;;;;;;;10.55;6.50;;;13.60;99.30;;;;;;5035586;28;20042;-68
2022/11/16 11:14:11;;;;;;;8.68;6.60;;;13.60;99.30;;;;;;5035562;28;20561;-84
2022/11/16 11:16:37;;;;;;;9.27;6.35;;;13.60;99.20;;;;;;5035270;28;20035;-68
2022/11/16 11:19:23;;;;;;;10.68;7.15;;;13.60;99.20;;;;;;5035276;28;20373;-68
2022/11/16 11:21:49;;;;;;;8.68;7.47;;;13.60;99.30;;;;;;5035142;28;20029;-69
2022/11/16 11:24:16;;;;;;;11.52;7.53;;;13.60;99.30;;;;;;5035191;28;20041;-68
2022/11/16 11:26:48;;;;;;;11.38;8.23;;;13.60;99.60;;;;;;5035127;28;20061;-68
2022/11/16 11:29:27;;;;;;;9.35;7.97;;;13.60;99.60;;;;;;5034887;28;20034;-68
2022/11/16 11:32:02;;;;;;;8.88;7.53;;;13.60;99.60;;;;;;5035267;28;20084;-68
2022/11/16 11:34:38;;;;;;;8.43;6.95;;;13.60;99.60;;;;;;5034201;28;20091;-68
2022/11/16 11:37:05;;;;;;;11.77;9.27;;;13.60;99.50;;;;;;5034969;28;20506;-68
2022/11/16 11:39:36;;;;;;;10.75;8.82;;;13.60;99.50;;;;;;5034748;28;20033;-68
2022/11/16 11:42:13;;;;;;;20.52;8.90;;;13.60;99.60;;;;;;5035055;28;20041;-68
2022/11/16 11:44:56;;;;;;;9.48;7.55;;;13.70;99.60;;;;;;5034704;28;20488;-68
2022/11/16 11:47:43;;;;;;;9.02;8.07;;;13.70;99.60;;;;;;5034593;28;20045;-68
2022/11/16 11:50:32;;;;;;;11.52;7.60;;;13.70;99.50;;;;;;5034677;28;20033;-68
2022/11/16 11:53:02;;;;;;;9.18;7.13;;;13.70;99.60;;;;;;5034678;28;20060;-68
2022/11/16 11:55:28;;;;;;;8.95;7.75;;;13.70;99.60;;;;;;5034803;28;20128;-68
2022/11/16 11:57:55;;;;;;;9.98;8.00;;;13.70;99.70;;;;;;5034260;28;20048;-68
2022/11/16 12:00:22;;;;;;;11.40;7.13;;;13.70;99.80;;;;;;5034375;28;20116;-68
2022/11/16 12:03:12;;;;;;;7.95;6.72;;;13.70;99.80;;;;;;5034740;28;20543;-68
2022/11/16 12:05:50;;;;;;;8.95;7.38;;;13.70;99.80;;;;;;5034555;28;20034;-68
2022/11/16 12:08:43;;;;;;;12.98;6.93;;;13.70;99.70;;;;;;5034406;28;20037;-68
2022/11/16 12:11:32;;;;;;;7.72;6.10;;;13.70;99.80;;;;;;5034587;28;20045;-68
2022/11/16 12:14:16;;;;;;;8.45;7.10;;;13.70;99.60;;;;;;5034353;28;20041;-68
2022/11/16 12:16:56;;;;;;;8.68;6.40;;;13.70;99.60;;;;;;5034349;28;20076;-68
2022/11/16 12:19:58;;;;;;;7.43;6.32;;;13.70;99.60;;;;;;5032803;28;20373;-68
2022/11/16 12:22:48;;;;;;;9.15;6.63;;;13.70;99.50;;;;;;5034289;28;20030;-69
2022/11/16 12:25:38;;;;;;;8.00;6.10;;;13.70;99.60;;;;;;5034084;28;20045;-69
2022/11/16 12:28:19;;;;;;;7.30;6.28;;;13.60;99.60;;;;;;5034003;28;20116;-69
2022/11/16 12:31:15;;;;;;;6.13;5.28;;;13.70;99.60;;;;;;5033992;28;20492;-69
2022/11/16 12:33:58;;;;;;;9.38;5.53;;;13.70;99.60;;;;;;5033893;28;20041;-69
2022/11/16 12:36:46;;;;;;;5.53;4.97;;;13.70;99.60;;;;;;5034026;28;20495;-69
2022/11/16 12:39:20;;;;;;;5.63;5.03;;;13.80;99.70;;;;;;5033810;28;20030;-69
2022/11/16 12:42:23;;;;;;;5.85;4.72;;;13.80;99.60;;;;;;5033917;28;20044;-69
2022/11/16 12:45:22;;;;;;;6.18;4.78;;;13.80;99.60;;;;;;5022732;28;20136;-70
2022/11/16 12:47:50;;;;;;;4.55;3.97;;;13.80;99.70;;;;;;5034011;28;20037;-69
2022/11/16 12:50:35;;;;;;;5.35;3.88;;;13.80;99.60;;;;;;5033655;28;20037;-70
2022/11/16 12:53:25;;;;;;;4.80;3.70;;;13.80;99.50;;;;;;5033811;28;20396;-69
2022/11/16 12:56:09;;;;;;;4.50;3.47;;;13.70;99.40;;;;;;5033725;28;20099;-69
2022/11/16 12:59:03;;;;;;;5.60;3.60;;;13.70;99.50;;;;;;5033207;28;20506;-70
2022/11/16 13:01:45;;;;;;;5.47;4.00;;;13.70;99.50;;;;;;5033656;28;20033;-69
2022/11/16 13:04:26;;;;;;;9.32;5.20;;;13.70;99.40;;;;;;5033647;28;20089;-70
2022/11/16 13:07:28;;;;;;;5.30;4.78;;;13.70;99.40;;;;;;5033687;28;20124;-69
2022/11/16 13:10:02;;;;;;;6.78;5.40;;;13.70;99.40;;;;;;5000057;28;20547;-69
2022/11/16 13:12:30;;;;;;;5.97;5.18;;;13.70;99.40;;;;;;5033384;28;20068;-70
2022/11/16 13:14:58;;;;;;;8.52;5.78;;;13.70;99.40;;;;;;5033504;28;20101;-69
2022/11/16 13:17:32;;;;;;;9.52;5.80;;;13.70;99.50;;;;;;5033132;28;20033;-69
2022/11/16 13:20:19;;;;;;;7.93;5.68;;;13.70;99.50;;;;;;5032906;28;20034;-69
2022/11/16 13:23:28;;;;;;;8.02;5.90;;;13.70;99.50;;;;;;5031764;28;20069;-69
2022/11/16 13:26:09;;;;;;;11.00;7.07;;;13.80;99.60;;;;;;5022247;28;20041;-70
2022/11/16 13:28:43;;;;;;;7.72;6.75;;;13.70;99.50;;;;;;5032968;28;20037;-68
2022/11/16 13:31:31;;;;;;;8.55;5.97;;;13.80;99.60;;;;;;5033014;28;20037;-69
2022/11/16 13:34:02;;;;;;;9.93;5.57;;;13.80;99.60;;;;;;5050493;28;20362;-73
2022/11/16 13:36:39;;;;;;;9.95;5.47;;;13.80;99.80;;;;;;5052933;28;20037;-68
2022/11/16 13:39:06;;;;;;;7.55;5.40;;;13.80;99.70;;;;;;5052832;28;20036;-68